Map

Track Data

SID SEASON NUMBER BASIN SUBBASIN NAME ISO_TIME NATURE LAT LON WMO_WIND WMO_PRES WMO_AGENCY TRACK_TYPE DIST2LAND LANDFALL IFLAG USA_AGENCY USA_ATCF_ID USA_LAT USA_LON USA_RECORD USA_STATUS USA_WIND USA_PRES USA_SSHS USA_R34_NE USA_R34_SE USA_R34_SW USA_R34_NW USA_R50_NE USA_R50_SE USA_R50_SW USA_R50_NW USA_R64_NE USA_R64_SE USA_R64_SW USA_R64_NW USA_POCI USA_ROCI USA_RMW USA_EYE TOKYO_LAT TOKYO_LON TOKYO_GRADE TOKYO_WIND TOKYO_PRES TOKYO_R50_DIR TOKYO_R50_LONG TOKYO_R50_SHORT TOKYO_R30_DIR TOKYO_R30_LONG TOKYO_R30_SHORT TOKYO_LAND CMA_LAT CMA_LON CMA_CAT CMA_WIND CMA_PRES HKO_LAT HKO_LON HKO_CAT HKO_WIND HKO_PRES NEWDELHI_LAT NEWDELHI_LON NEWDELHI_GRADE NEWDELHI_WIND NEWDELHI_PRES NEWDELHI_CI NEWDELHI_DP NEWDELHI_POCI REUNION_LAT REUNION_LON REUNION_TYPE REUNION_WIND REUNION_PRES REUNION_TNUM REUNION_CI REUNION_RMW REUNION_R34_NE REUNION_R34_SE REUNION_R34_SW REUNION_R34_NW REUNION_R50_NE REUNION_R50_SE REUNION_R50_SW REUNION_R50_NW REUNION_R64_NE REUNION_R64_SE REUNION_R64_SW REUNION_R64_NW BOM_LAT BOM_LON BOM_TYPE BOM_WIND BOM_PRES BOM_TNUM BOM_CI BOM_RMW BOM_R34_NE BOM_R34_SE BOM_R34_SW BOM_R34_NW BOM_R50_NE BOM_R50_SE BOM_R50_SW BOM_R50_NW BOM_R64_NE BOM_R64_SE BOM_R64_SW BOM_R64_NW BOM_ROCI BOM_POCI BOM_EYE BOM_POS_METHOD BOM_PRES_METHOD NADI_LAT NADI_LON NADI_CAT NADI_WIND NADI_PRES WELLINGTON_LAT WELLINGTON_LON WELLINGTON_WIND WELLINGTON_PRES DS824_LAT DS824_LON DS824_STAGE DS824_WIND DS824_PRES TD9636_LAT TD9636_LON TD9636_STAGE TD9636_WIND TD9636_PRES TD9635_LAT TD9635_LON TD9635_WIND TD9635_PRES TD9635_ROCI NEUMANN_LAT NEUMANN_LON NEUMANN_CLASS NEUMANN_WIND NEUMANN_PRES MLC_LAT MLC_LON MLC_CLASS MLC_WIND MLC_PRES USA_GUST BOM_GUST BOM_GUST_PER REUNION_GUST REUNION_GUST_PER USA_SEAHGT USA_SEARAD_NE USA_SEARAD_SE USA_SEARAD_SW USA_SEARAD_NW STORM_SPEED STORM_DIR
1995293N05177 1995 83 WP MM ANGELA 1995-10-20 06:00:00 NR 5.00000 176.500 main 2298 2248 O_____________ jtwc_wp WP291995 5.00000 176.500 15 -1 14 270
1995293N05177 1995 83 WP MM ANGELA 1995-10-20 09:00:00 NR 5.00509 175.823 main 2240 2184 P_____________ WP291995 5.00509 175.823 15 -1 14 270
1995293N05177 1995 83 WP MM ANGELA 1995-10-20 12:00:00 NR 5.00000 175.100 main 2184 2129 O_____________ jtwc_wp WP291995 5.00000 175.100 15 -1 15 269
1995293N05177 1995 83 WP MM ANGELA 1995-10-20 15:00:00 NR 4.98498 174.307 main 2121 2059 P_____________ WP291995 4.98498 174.307 15 -1 16 270
1995293N05177 1995 83 WP MM ANGELA 1995-10-20 18:00:00 NR 5.00000 173.500 main 2059 2014 O_____________ jtwc_wp WP291995 5.00000 173.500 15 -1 16 273
1995293N05177 1995 83 WP MM ANGELA 1995-10-20 21:00:00 NR 5.06994 172.728 main 2008 1966 P_____________ WP291995 5.06994 172.728 15 -1 15 278
1995293N05177 1995 83 WP MM ANGELA 1995-10-21 00:00:00 NR 5.20000 172.000 main 1966 1934 O_____________ jtwc_wp WP291995 5.20000 172.000 15 -1 14 282
1995293N05177 1995 83 WP MM ANGELA 1995-10-21 03:00:00 NR 5.37738 171.335 main 1936 1912 P_____________ WP291995 5.37738 171.335 15 -1 14 287
1995293N05177 1995 83 WP MM ANGELA 1995-10-21 06:00:00 NR 5.60000 170.700 main 1915 1896 O_____________ jtwc_wp WP291995 5.60000 170.700 15 -1 14 290
1995293N05177 1995 83 WP MM ANGELA 1995-10-21 09:00:00 NR 5.84997 170.035 main 1890 1880 P_____________ WP291995 5.84997 170.035 15 -1 14 291
1995293N05177 1995 83 WP MM ANGELA 1995-10-21 12:00:00 NR 6.10000 169.400 main 1884 1872 O_____________ jtwc_wp WP291995 6.10000 169.400 15 -1 13 291
1995293N05177 1995 83 WP MM ANGELA 1995-10-21 15:00:00 NR 6.29984 168.850 main 1871 1865 P_____________ WP291995 6.29984 168.850 15 -1 12 290
1995293N05177 1995 83 WP MM ANGELA 1995-10-21 18:00:00 NR 6.50000 168.300 main 1865 1857 O_____________ jtwc_wp WP291995 6.50000 168.300 15 -1 13 291
1995293N05177 1995 83 WP MM ANGELA 1995-10-21 21:00:00 NR 6.75747 167.665 main 1867 1854 P_____________ WP291995 6.75747 167.665 15 -1 14 291
1995293N05177 1995 83 WP MM ANGELA 1995-10-22 00:00:00 NR 7.00000 167.000 main 1857 1848 O_____________ jtwc_wp WP291995 7.00000 167.000 15 -1 14 288
1995293N05177 1995 83 WP MM ANGELA 1995-10-22 03:00:00 NR 7.17244 166.342 main 1851 1840 P_____________ WP291995 7.17244 166.342 15 -1 13 283
1995293N05177 1995 83 WP MM ANGELA 1995-10-22 06:00:00 NR 7.30000 165.700 main 1841 1824 O_____________ jtwc_wp WP291995 7.30000 165.700 15 -1 13 281
1995293N05177 1995 83 WP MM ANGELA 1995-10-22 09:00:00 NR 7.40742 165.085 main 1824 1801 P_____________ WP291995 7.40742 165.085 15 -1 12 280
1995293N05177 1995 83 WP MM ANGELA 1995-10-22 12:00:00 NR 7.50000 164.500 main 1801 1778 O_____________ jtwc_wp WP291995 7.50000 164.500 15 -1 11 280
1995293N05177 1995 83 WP MM ANGELA 1995-10-22 15:00:00 NR 7.59977 163.972 main 1778 1752 P_____________ WP291995 7.59977 163.972 15 -1 11 280
1995293N05177 1995 83 WP MM ANGELA 1995-10-22 18:00:00 NR 7.70000 163.400 main 1752 1711 O_____________ jtwc_wp WP291995 7.70000 163.400 15 -1 13 279
1995293N05177 1995 83 WP MM ANGELA 1995-10-22 21:00:00 NR 7.79993 162.695 main 1711 1664 P_____________ WP291995 7.79993 162.695 15 -1 15 278
1995293N05177 1995 83 WP MM ANGELA 1995-10-23 00:00:00 NR 7.90000 161.900 main 1664 1619 O_____________ jtwc_wp WP291995 7.90000 161.900 15 -1 16 277
1995293N05177 1995 83 WP MM ANGELA 1995-10-23 03:00:00 NR 7.99232 161.080 main 1619 1575 P_____________ WP291995 7.99232 161.080 15 -1 17 277
1995293N05177 1995 83 WP MM ANGELA 1995-10-23 06:00:00 NR 8.10000 160.200 main 1568 1522 O_____________ jtwc_wp WP291995 8.10000 160.200 15 -1 18 278
1995293N05177 1995 83 WP MM ANGELA 1995-10-23 09:00:00 NR 8.24233 159.272 main 1522 1489 P_____________ WP291995 8.24233 159.272 15 -1 19 279
1995293N05177 1995 83 WP MM ANGELA 1995-10-23 12:00:00 NR 8.40000 158.300 main 1483 1440 O_____________ jtwc_wp WP291995 8.40000 158.300 15 -1 20 279
1995293N05177 1995 83 WP MM ANGELA 1995-10-23 15:00:00 NR 8.54991 157.292 main 1440 1415 P_____________ WP291995 8.54991 157.292 15 -1 20 279
1995293N05177 1995 83 WP MM ANGELA 1995-10-23 18:00:00 NR 8.70000 156.300 main 1411 1382 O_____________ jtwc_wp WP291995 8.70000 156.300 15 -1 19 279
1995293N05177 1995 83 WP MM ANGELA 1995-10-23 21:00:00 NR 8.84978 155.370 main 1382 1369 P_____________ WP291995 8.84978 155.370 15 -1 18 280
1995293N05177 1995 83 WP MM ANGELA 1995-10-24 00:00:00 NR 9.00000 154.500 main 1370 1358 O_____________ jtwc_wp WP291995 9.00000 154.500 15 -1 17 280
1995293N05177 1995 83 WP MM ANGELA 1995-10-24 03:00:00 NR 9.14227 153.677 main 1358 1357 P_____________ WP291995 9.14227 153.677 17 -1 16 281
1995293N05177 1995 83 WP MM ANGELA 1995-10-24 06:00:00 NR 9.30000 152.900 main 1362 1359 O_____________ jtwc_wp WP291995 9.30000 152.900 20 -1 16 283
1995293N05177 1995 83 WP MM ANGELA 1995-10-24 09:00:00 NR 9.49984 152.135 main 1373 1372 P_____________ WP291995 9.49984 152.135 20 -1 15 285
1995293N05177 1995 83 WP MM ANGELA 1995-10-24 12:00:00 NR 9.70000 151.400 main 1390 1385 O_____________ jtwc_wp WP291995 9.70000 151.400 20 -1 15 284
1995293N05177 1995 83 WP MM ANGELA 1995-10-24 15:00:00 NR 9.87247 150.663 main 1393 1382 P_____________ WP291995 9.87247 150.663 20 -1 14 282
1995293N05177 1995 83 WP MM ANGELA 1995-10-24 18:00:00 NR 10.0000 150.000 main 1386 1377 O_____________ jtwc_wp WP291995 10.0000 150.000 20 -1 12 279
1995293N05177 1995 83 WP MM ANGELA 1995-10-24 21:00:00 NR 10.0648 149.455 main 1386 1378 P_____________ WP291995 10.0648 149.455 20 -1 10 276
1995293N05177 1995 83 WP MM ANGELA 1995-10-25 00:00:00 NR 10.1000 149.000 main 1378 1373 O_____________ jtwc_wp WP291995 10.1000 149.000 20 -1 9 276
1995293N05177 1995 83 WP MM ANGELA 1995-10-25 03:00:00 NR 10.1574 148.578 main 1384 1381 P_____________ WP291995 10.1574 148.578 20 -1 8 277
1995293N05177 1995 83 WP MM ANGELA 1995-10-25 06:00:00 NR 10.2000 148.200 main 1381 1379 O_____________ jtwc_wp WP291995 10.2000 148.200 20 -1 7 274
1995293N05177 1995 83 WP MM ANGELA 1995-10-25 09:00:00 NR 10.2074 147.865 main 1379 1378 P_____________ WP291995 10.2074 147.865 22 -1 6 270
1995293N05177 1995 83 WP MM ANGELA 1995-10-25 12:00:00 NR 10.2000 147.640 main 1378 1378 O__O__________ jtwc_wp WP291995 10.2000 147.500 25 -1 10.2000 148.200 TD 25 1004 7 269
1995293N05177 1995 83 WP MM ANGELA 1995-10-25 15:00:00 NR 10.1926 147.161 main 1378 1367 P__P__________ WP291995 10.1850 147.030 27 -1 10.2079 147.423 TD 25 1004 10 266
1995293N05177 1995 83 WP MM ANGELA 1995-10-25 18:00:00 TS 10.1250 146.600 1006 tokyo main 1367 1367 OO_O__________ jtwc_wp WP291995 10.2000 146.500 30 -1 9.60000 146.700 2 1006 0 0 0 10.2000 146.700 TD 25 1004 11 267
1995293N05177 1995 83 WP MM ANGELA 1995-10-25 21:00:00 TS 10.1335 146.013 main 1368 1368 PP_P__________ WP291995 10.2624 145.957 32 -1 9.78789 146.010 2 1007 0 0 10.1773 146.070 TD 27 1002 12 274
1995293N05177 1995 83 WP MM ANGELA 1995-10-26 00:00:00 TS 10.2000 145.400 1008 tokyo main 1384 1384 OOOO__________ jtwc_wp WP291995 10.4000 145.400 35 0 10.0000 145.400 2 1008 0 0 0 10.0000 145.000 1 23 1006 10.2000 145.500 TD 30 1000 12 282
1995293N05177 1995 83 WP MM ANGELA 1995-10-26 03:00:00 TS 10.3760 144.865 main 1413 1413 PPPP__________ WP291995 10.6274 144.850 37 0 10.2498 144.920 2 1007 0 0 10.2526 144.660 1 23 1005 10.3124 144.928 TD 30 1000 11 292
1995293N05177 1995 83 WP MM ANGELA 1995-10-26 06:00:00 TS 10.6067 144.380 1006 tokyo main 1443 1443 OOOO__________ jtwc_wp WP291995 10.9000 144.300 40 0 10.5000 144.500 2 1006 0 0 0 10.5000 144.300 1 23 1004 10.5000 144.400 TD 30 1000 10 296
1995293N05177 1995 83 WP MM ANGELA 1995-10-26 09:00:00 TS 10.8281 143.907 main 1476 1476 PPPP__________ WP291995 11.1574 143.742 40 0 10.6849 144.050 2 1005 0 0 10.7425 143.907 1 26 1003 10.7274 143.927 TD 30 1000 10 297
1995293N05177 1995 83 WP MM ANGELA 1995-10-26 12:00:00 TS 11.0750 143.450 1004 tokyo main 1518 1518 OOOO__________ jtwc_wp WP291995 11.4000 143.200 40 0 10.9000 143.600 2 1004 0 0 0 11.0000 143.500 1 29 1002 11.0000 143.500 TD 30 1000 10 301
1995293N05177 1995 83 WP MM ANGELA 1995-10-26 15:00:00 TS 11.3624 143.003 main 1550 1546 PPPP__________ WP291995 11.6150 142.662 42 0 11.2349 143.150 2 1002 0 0 11.2924 143.107 1 29 1001 11.3074 143.092 TD 32 998 10 304
1995293N05177 1995 83 WP MM ANGELA 1995-10-26 18:00:00 TS 11.6500 142.575 35 1000 tokyo main 1567 1557 OOOO__________ jtwc_wp WP291995 11.8000 142.200 45 0 11.6000 142.700 3 35 1000 0 9 60 60 0 11.6000 142.700 1 29 1000 11.6000 142.700 TS 35 996 10 303
1995293N05177 1995 83 WP MM ANGELA 1995-10-26 21:00:00 TS 11.9024 142.167 main 1575 1572 PPPP__________ WP291995 11.9648 141.877 47 0 11.9149 142.250 3 37 998 0 9 75 75 11.9075 142.257 1 33 997 11.8225 142.285 TS 37 994 9 301
1995293N05177 1995 83 WP MM ANGELA 1995-10-27 00:00:00 TS 12.1250 141.775 40 996 tokyo main 1585 1581 OOOO__________ jtwc_wp WP291995 12.1000 141.600 50 0 12.2000 141.800 3 40 996 0 9 90 90 0 12.2000 141.800 2 38 995 12.0000 141.900 TS 40 992 9 299
1995293N05177 1995 83 WP MM ANGELA 1995-10-27 03:00:00 TS 12.3274 141.384 main 1588 1584 PPPP__________ WP291995 12.2075 141.242 52 0 12.4724 141.350 3 42 994 0 9 105 105 12.4724 141.350 2 38 995 12.1574 141.592 TS 42 991 8 296
1995293N05177 1995 83 WP MM ANGELA 1995-10-27 06:00:00 TS 12.5000 141.000 45 992 tokyo main 1593 1588 OOOO__________ jtwc_wp WP291995 12.3000 140.900 55 0 12.7000 140.900 3 45 992 0 9 120 120 0 12.7000 140.900 2 38 995 12.3000 141.300 TS 45 990 8 293
1995293N05177 1995 83 WP MM ANGELA 1995-10-27 09:00:00 TS 12.6468 140.621 main 1588 1588 PPPP__________ WP291995 12.3924 140.650 57 0 12.8725 140.435 3 45 992 0 9 120 120 12.8725 140.435 2 38 995 12.4500 140.965 TS 45 990 8 291
1995293N05177 1995 83 WP MM ANGELA 1995-10-27 12:00:00 TS 12.7750 140.250 45 992 tokyo main 1591 1549 OOOO__________ jtwc_wp WP291995 12.5000 140.400 60 0 13.0000 140.000 3 45 992 0 9 120 120 0 13.0000 140.000 2 38 995 12.6000 140.600 TS 45 990 8 290
1995293N05177 1995 83 WP MM ANGELA 1995-10-27 15:00:00 TS 12.9131 139.880 main 1549 1507 PPPP__________ WP291995 12.6500 140.073 60 0 13.1224 139.620 3 45 992 0 9 120 120 13.1224 139.620 2 38 995 12.7575 140.208 TS 45 990 8 289
1995293N05177 1995 83 WP MM ANGELA 1995-10-27 18:00:00 TS 13.0250 139.525 45 992 tokyo main 1507 1476 OOOO__________ jtwc_wp WP291995 12.8000 139.700 60 0 13.2000 139.300 3 45 992 0 9 120 120 0 13.2000 139.300 2 38 995 12.9000 139.800 TS 45 990 7 285
1995293N05177 1995 83 WP MM ANGELA 1995-10-27 21:00:00 TS 13.0937 139.185 main 1476 1444 PPPP__________ WP291995 12.9150 139.300 62 0 13.2224 139.027 3 45 992 0 9 120 120 13.2224 139.027 2 38 995 13.0150 139.385 TS 45 990 6 279
1995293N05177 1995 83 WP MM ANGELA 1995-10-28 00:00:00 TS 13.1250 138.875 45 992 tokyo main 1444 1412 OOOO__________ jtwc_wp WP291995 13.0000 138.900 65 1 13.2000 138.800 3 45 992 0 9 120 120 0 13.2000 138.800 2 38 995 13.1000 139.000 TS 45 990 6 275
1995293N05177 1995 83 WP MM ANGELA 1995-10-28 03:00:00 TS 13.1400 138.592 main 1412 1390 PPPP__________ WP291995 13.0800 138.513 67 1 13.1575 138.592 3 47 991 0 9 130 130 13.1575 138.592 2 38 995 13.1650 138.670 TS 45 990 5 270
1995293N05177 1995 83 WP MM ANGELA 1995-10-28 06:00:00 TS 13.1250 138.350 50 990 tokyo main 1380 1358 OOOO__________ jtwc_wp WP291995 13.1000 138.200 70 1 13.1000 138.400 4 50 990 0 9 140 140 0 13.1000 138.400 2 38 995 13.2000 138.400 TS 45 990 5 264
1995293N05177 1995 83 WP MM ANGELA 1995-10-28 09:00:00 TS 13.0881 138.123 main 1358 1346 PPPP__________ WP291995 13.0224 137.997 70 1 13.0575 138.170 4 50 990 0 9 140 140 13.0425 138.170 2 38 995 13.2300 138.155 TS 45 990 4 255
1995293N05177 1995 83 WP MM ANGELA 1995-10-28 12:00:00 TS 13.0250 137.975 50 990 tokyo main 1346 1334 OOOO__________ jtwc_wp WP291995 12.9000 137.900 70 1 13.0000 138.000 4 50 990 0 9 140 140 0 13.0000 138.000 2 38 995 13.2000 138.000 TS 45 990 2 230
1995293N05177 1995 83 WP MM ANGELA 1995-10-28 15:00:00 TS 12.9393 137.939 main 1334 1334 PPPP__________ WP291995 12.7850 137.870 72 1 12.9000 137.955 4 50 990 0 9 140 140 13.0150 137.985 2 43 990 13.0575 137.947 TS 47 987 2 172
1995293N05177 1995 83 WP MM ANGELA 1995-10-28 18:00:00 TS 12.8500 137.975 50 990 tokyo main 1344 1343 OOOO__________ jtwc_wp WP291995 12.7000 137.900 75 1 12.8000 138.000 4 50 990 0 9 140 140 0 13.0000 138.000 3 48 985 12.9000 138.000 STS 50 985 2 153
1995293N05177 1995 83 WP MM ANGELA 1995-10-28 21:00:00 TS 12.7856 138.016 main 1343 1341 PPPP__________ WP291995 12.7000 137.950 75 1 12.7500 138.092 4 52 987 0 9 150 150 12.8500 137.862 3 48 985 12.8425 138.158 STS 52 982 2 142
1995293N05177 1995 83 WP MM ANGELA 1995-10-29 00:00:00 TS 12.7250 138.075 55 985 tokyo main 1352 1352 OOOO__________ jtwc_wp WP291995 12.7000 138.000 75 1 12.7000 138.200 4 55 985 9 40 40 9 160 160 0 12.7000 137.800 3 48 985 12.8000 138.300 STS 55 980 2 130
1995293N05177 1995 83 WP MM ANGELA 1995-10-29 03:00:00 TS 12.6613 138.166 main 1363 1362 PPPP__________ WP291995 12.6300 138.015 75 1 12.6075 138.288 4 55 985 9 40 40 9 160 160 12.7076 138.058 3 48 985 12.7000 138.302 STS 55 980 2 141
1995293N05177 1995 83 WP MM ANGELA 1995-10-29 06:00:00 TS 12.5750 138.200 55 985 tokyo main 1362 1348 OOOO__________ jtwc_wp WP291995 12.5000 138.000 75 1 12.5000 138.300 4 55 985 9 40 40 9 160 160 0 12.7000 138.300 3 48 985 12.6000 138.200 STS 55 980 2 195
1995293N05177 1995 83 WP MM ANGELA 1995-10-29 09:00:00 TS 12.4356 138.111 main 1348 1325 PPPP__________ WP291995 12.3075 137.980 75 1 12.3925 138.202 4 55 985 9 40 40 9 160 160 12.5074 138.232 3 48 985 12.5350 138.030 STS 55 980 4 224
1995293N05177 1995 83 WP MM ANGELA 1995-10-29 12:00:00 TS 12.3000 137.925 55 985 tokyo main 1325 1301 OOOO__________ jtwc_wp WP291995 12.1000 137.900 75 1 12.3000 138.000 4 55 985 9 40 40 9 160 160 0 12.3000 138.000 3 48 985 12.5000 137.800 STS 55 980 5 242
1995293N05177 1995 83 WP MM ANGELA 1995-10-29 15:00:00 TS 12.2262 137.704 main 1301 1269 PPPP__________ WP291995 11.9274 137.760 75 1 12.2424 137.745 4 55 985 9 40 40 9 160 160 12.2274 137.745 3 48 985 12.5075 137.565 STS 55 980 5 256
1995293N05177 1995 83 WP MM ANGELA 1995-10-29 18:00:00 TS 12.1750 137.400 55 985 tokyo main 1269 1224 OOOO__________ jtwc_wp WP291995 11.8000 137.500 75 1 12.2000 137.400 4 55 985 9 40 40 9 160 160 0 12.2000 137.400 3 48 985 12.5000 137.300 STS 55 980 7 261
1995293N05177 1995 83 WP MM ANGELA 1995-10-29 21:00:00 TS 12.1163 136.997 main 1224 1182 PPPP__________ WP291995 11.7276 137.073 75 1 12.1576 136.950 4 57 982 9 45 45 9 160 160 12.1576 136.950 3 48 985 12.4225 137.015 STS 57 977 8 261
1995293N05177 1995 83 WP MM ANGELA 1995-10-30 00:00:00 TS 12.0500 136.575 60 980 tokyo main 1182 1148 OOOO__________ jtwc_wp WP291995 11.7000 136.600 75 1 12.1000 136.500 4 60 980 9 50 50 9 160 160 0 12.1000 136.500 3 48 985 12.3000 136.700 STS 60 975 8 258
1995293N05177 1995 83 WP MM ANGELA 1995-10-30 03:00:00 TS 11.9624 136.239 main 1137 1103 PPPP__________ WP291995 11.6924 136.243 75 1 12.0074 136.178 4 60 980 9 50 50 9 160 160 12.0074 136.178 3 53 982 12.1425 136.357 STS 60 975 7 255
1995293N05177 1995 83 WP MM ANGELA 1995-10-30 06:00:00 TS 11.8750 135.925 60 980 tokyo main 1103 1068 OOOO__________ jtwc_wp WP291995 11.7000 135.900 75 1 11.9000 135.900 4 60 980 9 50 50 9 160 160 0 11.9000 135.900 3 58 980 12.0000 136.000 STS 60 975 7 255
1995293N05177 1995 83 WP MM ANGELA 1995-10-30 09:00:00 TS 11.7975 135.589 main 1068 1037 PPPP__________ WP291995 11.6925 135.507 80 1 11.7850 135.600 4 62 977 9 55 55 9 170 170 11.7775 135.600 3 58 980 11.9350 135.650 STS 60 975 7 259
1995293N05177 1995 83 WP MM ANGELA 1995-10-30 12:00:00 TS 11.7500 135.250 65 975 tokyo main 1037 1002 OOOO__________ jtwc_wp WP291995 11.7000 135.100 85 2 11.7000 135.300 5 65 975 9 60 60 9 180 180 0 11.7000 135.300 3 58 980 11.9000 135.300 STS 60 975 6 265
1995293N05177 1995 83 WP MM ANGELA 1995-10-30 15:00:00 TS 11.7380 134.939 main 992 964 PPPP__________ WP291995 11.7424 134.708 87 2 11.6623 135.037 5 67 972 9 65 65 9 190 190 11.7198 135.037 3 58 980 11.8274 134.972 STS 60 975 7 272
1995293N05177 1995 83 WP MM ANGELA 1995-10-30 18:00:00 TS 11.7750 134.575 70 970 tokyo main 964 909 OOOO__________ jtwc_wp WP291995 11.8000 134.300 90 2 11.7000 134.700 5 70 970 9 70 70 9 200 200 0 11.8000 134.700 3 58 980 11.8000 134.600 STS 60 975 8 278
1995293N05177 1995 83 WP MM ANGELA 1995-10-30 21:00:00 TS 11.8600 134.091 main 910 857 PPPP__________ WP291995 11.8499 133.865 90 2 11.8276 134.180 5 72 965 9 75 75 9 200 200 11.8851 134.187 3 61 977 11.8775 134.130 STS 62 972 10 281
1995293N05177 1995 83 WP MM ANGELA 1995-10-31 00:00:00 TS 11.9750 133.550 75 960 tokyo main 857 805 OOOO__________ jtwc_wp WP291995 11.9000 133.400 90 2 12.0000 133.600 5 75 960 9 80 80 9 200 200 0 12.0000 133.600 4 64 975 12.0000 133.600 T 65 970 11 283
1995293N05177 1995 83 WP MM ANGELA 1995-10-31 03:00:00 TS 12.0930 133.038 main 794 742 PPPP__________ WP291995 11.9424 132.915 90 2 12.1647 133.115 5 75 960 9 80 80 9 200 200 12.1573 133.058 4 66 972 12.1074 133.065 T 67 967 11 282
1995293N05177 1995 83 WP MM ANGELA 1995-10-31 06:00:00 TS 12.2000 132.500 75 960 tokyo main 742 680 OOOO__________ jtwc_wp WP291995 12.0000 132.400 90 2 12.3000 132.600 5 75 960 9 80 80 9 200 200 0 12.3000 132.500 4 68 970 12.2000 132.500 T 70 965 11 279
1995293N05177 1995 83 WP MM ANGELA 1995-10-31 09:00:00 TS 12.2738 131.900 main 680 616 PPPP__________ WP291995 12.0925 131.843 102 3 12.3726 131.957 5 77 957 9 80 80 9 200 200 12.3725 131.900 4 68 970 12.2575 131.900 T 72 962 12 276
1995293N05177 1995 83 WP MM ANGELA 1995-10-31 12:00:00 TS 12.3250 131.300 80 955 tokyo main 616 564 OOOO__________ jtwc_wp WP291995 12.2000 131.300 115 4 12.4000 131.300 5 80 955 9 80 80 9 200 200 0 12.4000 131.300 4 68 970 12.3000 131.300 T 75 960 11 274
1995293N05177 1995 83 WP MM ANGELA 1995-10-31 15:00:00 TS 12.3531 130.734 main 556 514 PPPP__________ WP291995 12.2924 130.827 125 4 12.3925 130.697 5 82 950 9 85 85 9 210 210 12.3925 130.712 4 72 965 12.3351 130.697 T 77 957 10 274
1995293N05177 1995 83 WP MM ANGELA 1995-10-31 18:00:00 TS 12.4000 130.250 85 945 tokyo main 514 477 OOOO__________ jtwc_wp WP291995 12.4000 130.400 135 4 12.4000 130.200 5 85 945 9 90 90 9 220 220 0 12.4000 130.200 4 77 960 12.4000 130.200 T 80 955 8 279
1995293N05177 1995 83 WP MM ANGELA 1995-10-31 21:00:00 TS 12.4798 129.895 main 477 447 PPPP__________ WP291995 12.5124 129.985 145 5 12.4473 129.862 5 90 937 9 95 95 9 230 230 12.4474 129.805 4 82 955 12.5122 129.927 T 85 950 7 292
1995293N05177 1995 83 WP MM ANGELA 1995-11-01 00:00:00 TS 12.6500 129.600 95 930 tokyo main 448 420 OOOO__________ jtwc_wp WP291995 12.7000 129.600 155 5 12.6000 129.600 5 95 930 9 100 100 9 240 240 0 12.6000 129.500 5 87 950 12.7000 129.700 ST 90 945 8 308
1995293N05177 1995 83 WP MM ANGELA 1995-11-01 03:00:00 TS 12.9499 129.286 main 420 396 PPPP__________ WP291995 13.0274 129.250 155 5 12.9049 129.315 5 100 925 9 105 105 9 240 240 12.9049 129.257 5 96 940 12.9625 129.322 ST 97 937 9 317
1995293N05177 1995 83 WP MM ANGELA 1995-11-01 06:00:00 TS 13.3250 128.950 105 920 tokyo main 399 375 OOOO__________ jtwc_wp WP291995 13.4000 128.900 155 5 13.3000 129.000 5 105 920 9 110 110 9 240 240 0 13.3000 129.000 6 106 930 13.3000 128.900 SuperT 105 930 10 319
1995293N05177 1995 83 WP MM ANGELA 1995-11-01 09:00:00 TS 13.7298 128.595 main 375 355 PPPP__________ WP291995 13.7298 128.530 155 5 13.7298 128.653 5 107 917 9 115 115 9 240 240 13.7297 128.668 6 111 927 13.7298 128.530 SuperT 105 930 11 314
1995293N05177 1995 83 WP MM ANGELA 1995-11-01 12:00:00 TS 14.0750 128.150 110 915 tokyo main 361 327 OOOO__________ jtwc_wp WP291995 14.0000 128.100 155 5 14.1000 128.200 5 110 915 9 120 120 9 240 240 0 14.1000 128.200 6 116 925 14.1000 128.100 SuperT 105 930 12 298
1995293N05177 1995 83 WP MM ANGELA 1995-11-01 15:00:00 TS 14.2765 127.533 main 319 272 PPPP__________ WP291995 14.2026 127.565 155 5 14.3178 127.558 5 112 912 9 120 120 9 240 240 14.3180 127.500 6 116 925 14.2677 127.507 SuperT 105 930 12 283
1995293N05177 1995 83 WP MM ANGELA 1995-11-01 18:00:00 TS 14.3500 126.900 115 910 tokyo main 275 220 OOOO__________ jtwc_wp WP291995 14.3000 127.000 155 5 14.4000 126.900 5 115 910 9 120 120 9 240 240 0 14.4000 126.800 6 116 925 14.3000 126.900 SuperT 105 930 11 273
1995293N05177 1995 83 WP MM ANGELA 1995-11-01 21:00:00 TS 14.3241 126.424 main 220 178 PPPP__________ WP291995 14.2724 126.485 155 5 14.3797 126.420 5 115 910 9 120 120 9 240 240 14.3796 126.362 6 116 925 14.2648 126.427 SuperT 102 932 9 263
1995293N05177 1995 83 WP MM ANGELA 1995-11-02 00:00:00 TS 14.2500 126.000 115 910 tokyo main 178 133 OOOO__________ jtwc_wp WP291995 14.2000 126.000 155 5 14.3000 126.000 5 115 910 9 120 120 9 240 240 0 14.3000 126.000 6 116 925 14.2000 126.000 SuperT 100 935 9 263
1995293N05177 1995 83 WP MM ANGELA 1995-11-02 03:00:00 TS 14.2268 125.550 main 133 82 PPPP__________ WP291995 14.1998 125.550 155 5 14.2575 125.543 5 115 910 9 140 140 9 245 245 14.2575 125.558 6 116 925 14.1924 125.550 SuperT 100 935 9 267
1995293N05177 1995 83 WP MM ANGELA 1995-11-02 06:00:00 TS 14.2000 125.100 115 910 tokyo main 82 39 OOOO__________ jtwc_wp WP291995 14.2000 125.100 155 5 14.2000 125.100 5 115 910 9 160 160 9 250 250 0 14.2000 125.100 6 116 925 14.2000 125.100 SuperT 100 935 9 264
1995293N05177 1995 83 WP MM ANGELA 1995-11-02 09:00:00 TS 14.1299 124.659 main 39 11 PPPP__________ WP291995 14.1499 124.607 155 5 14.0848 124.715 5 110 915 9 155 155 9 250 250 14.0849 124.657 6 106 932 14.1999 124.658 SuperT 100 935 9 262
1995293N05177 1995 83 WP MM ANGELA 1995-11-02 12:00:00 TS 14.0750 124.200 105 920 tokyo main 11 11 OOOO__________ jtwc_wp WP291995 14.1000 124.100 155 5 14.0000 124.300 5 105 920 9 150 150 9 250 250 0 14.0000 124.200 5 97 940 14.2000 124.200 SuperT 100 935 9 267
1995293N05177 1995 83 WP MM ANGELA 1995-11-02 15:00:00 TS 14.0810 123.719 main 22 11 PPPP__________ WP291995 14.0771 123.637 147 5 14.0274 123.788 5 97 927 9 140 140 9 240 240 14.0273 123.730 5 87 950 14.1923 123.722 SuperT 95 940 10 273
1995293N05177 1995 83 WP MM ANGELA 1995-11-02 18:00:00 TS 14.1250 123.175 90 935 tokyo main 11 0 OOOO__________ jtwc_wp WP291995 14.1000 123.100 140 5 14.1000 123.200 5 90 935 9 130 130 9 230 230 0 14.1000 123.200 4 77 960 14.2000 123.200 ST 90 945 11 275
1995293N05177 1995 83 WP MM ANGELA 1995-11-02 21:00:00 TS 14.1760 122.559 main 0 0 PPPP__________ WP291995 14.1851 122.388 140 5 14.1422 122.595 5 87 940 9 120 120 9 225 225 14.1420 122.625 4 72 965 14.2348 122.630 ST 85 950 13 276
1995293N05177 1995 83 WP MM ANGELA 1995-11-03 00:00:00 TS 14.2500 121.850 85 945 tokyo main 21 0 OOOO__________ jtwc_wp WP291995 14.3000 121.600 140 5 14.2000 121.900 5 85 945 9 110 110 9 220 220 0 14.2000 121.900 4 68 970 14.3000 122.000 T 80 955 15 277
1995293N05177 1995 83 WP MM ANGELA 1995-11-03 03:00:00 TS 14.3465 121.019 main 0 0 PPPP__________ WP291995 14.4075 120.820 130 4 14.2929 121.043 5 80 955 9 105 105 9 215 215 14.2934 120.885 4 63 975 14.3923 121.330 T 77 957 16 277
1995293N05177 1995 83 WP MM ANGELA 1995-11-03 06:00:00 TS 14.4500 120.200 75 965 tokyo main 21 21 OOOO__________ jtwc_wp WP291995 14.5000 120.100 120 4 14.4000 120.200 5 75 965 9 100 100 9 210 210 0 14.4000 119.900 3 58 980 14.5000 120.600 T 75 960 15 278
1995293N05177 1995 83 WP MM ANGELA 1995-11-03 09:00:00 TS 14.5522 119.526 main 68 68 PPPP__________ WP291995 14.5572 119.512 122 4 14.5221 119.548 5 75 965 9 95 95 9 210 210 14.5143 119.275 3 53 982 14.6153 119.770 T 70 965 12 278
1995293N05177 1995 83 WP MM ANGELA 1995-11-03 12:00:00 TS 14.6250 118.950 75 965 tokyo main 120 120 OOOO__________ jtwc_wp WP291995 14.6000 119.000 125 4 14.6000 119.000 5 75 965 9 90 90 9 210 210 0 14.6000 118.800 3 48 985 14.7000 119.000 T 65 970 11 275
1995293N05177 1995 83 WP MM ANGELA 1995-11-03 15:00:00 TS 14.6379 118.426 main 184 184 PPPP__________ WP291995 14.6498 118.500 125 4 14.5648 118.477 5 75 962 9 85 85 9 205 205 14.6225 118.270 3 48 985 14.7145 118.455 T 65 970 10 270
1995293N05177 1995 83 WP MM ANGELA 1995-11-03 18:00:00 TS 14.6250 117.950 75 960 tokyo main 222 222 OOOO__________ jtwc_wp WP291995 14.7000 118.000 125 4 14.5000 118.000 5 75 960 9 80 80 9 200 200 0 14.6000 117.800 3 48 985 14.7000 118.000 T 65 970 9 268
1995293N05177 1995 83 WP MM ANGELA 1995-11-03 21:00:00 TS 14.6005 117.487 main 272 272 PPPP__________ WP291995 14.7500 117.450 120 4 14.4548 117.550 5 75 960 9 80 80 9 200 200 14.5122 117.450 3 48 985 14.6849 117.500 T 65 970 9 270
1995293N05177 1995 83 WP MM ANGELA 1995-11-04 00:00:00 TS 14.6250 117.025 75 960 tokyo main 324 324 OOOO__________ jtwc_wp WP291995 14.8000 116.900 115 4 14.5000 117.100 5 75 960 9 80 80 9 200 200 0 14.5000 117.100 3 48 985 14.7000 117.000 T 65 970 9 281
1995293N05177 1995 83 WP MM ANGELA 1995-11-04 03:00:00 TS 14.7723 116.544 main 368 368 PPPP__________ WP291995 14.8498 116.392 115 4 14.7348 116.623 5 75 960 9 80 80 9 200 200 14.7198 116.653 3 48 985 14.7848 116.508 T 62 972 10 289
1995293N05177 1995 83 WP MM ANGELA 1995-11-04 06:00:00 TS 14.9500 116.025 75 960 tokyo main 412 412 OOOO__________ jtwc_wp WP291995 14.9000 115.900 115 4 15.0000 116.100 5 75 960 9 80 80 9 200 200 0 15.0000 116.100 3 48 985 14.9000 116.000 STS 60 975 11 285
1995293N05177 1995 83 WP MM ANGELA 1995-11-04 09:00:00 TS 15.0556 115.443 main 471 471 PPPP__________ WP291995 14.9424 115.400 115 4 15.1225 115.507 5 75 960 9 80 80 9 200 200 15.1652 115.407 3 48 985 14.9924 115.457 STS 60 975 12 280
1995293N05177 1995 83 WP MM ANGELA 1995-11-04 12:00:00 TS 15.1500 114.850 75 960 tokyo main 521 521 OOOO__________ jtwc_wp WP291995 15.0000 114.900 115 4 15.2000 114.900 5 75 960 9 80 80 9 200 200 0 15.3000 114.700 3 48 985 15.1000 114.900 STS 60 975 11 281
1995293N05177 1995 83 WP MM ANGELA 1995-11-04 15:00:00 TS 15.2617 114.297 main 560 510 PPPP__________ WP291995 15.0774 114.400 115 4 15.2849 114.327 5 72 962 9 75 75 9 200 200 15.4498 114.112 3 48 985 15.2349 114.350 STS 60 975 11 284
1995293N05177 1995 83 WP MM ANGELA 1995-11-04 18:00:00 TS 15.4000 113.775 70 965 tokyo main 510 459 OOOO__________ jtwc_wp WP291995 15.2000 113.900 115 4 15.4000 113.800 5 70 965 9 70 70 9 200 200 0 15.6000 113.600 3 48 985 15.4000 113.800 STS 60 975 10 287
1995293N05177 1995 83 WP MM ANGELA 1995-11-04 21:00:00 TS 15.5705 113.274 main 462 412 PPPP__________ WP291995 15.3774 113.392 112 3 15.5848 113.335 5 67 967 9 65 65 9 190 190 15.7273 113.135 3 48 985 15.5925 113.235 STS 60 975 10 292
1995293N05177 1995 83 WP MM ANGELA 1995-11-05 00:00:00 TS 15.7750 112.800 65 970 tokyo main 412 369 OOOO__________ jtwc_wp WP291995 15.6000 112.900 110 3 15.8000 112.900 5 65 970 9 60 60 9 180 180 0 15.9000 112.700 3 48 985 15.8000 112.700 STS 60 975 10 296
1995293N05177 1995 83 WP MM ANGELA 1995-11-05 03:00:00 TS 16.0068 112.326 main 363 318 PPPP__________ WP291995 15.8575 112.413 105 3 16.0075 112.442 5 62 972 9 55 55 9 180 180 16.1700 112.228 3 48 985 15.9924 112.220 STS 60 975 10 299
1995293N05177 1995 83 WP MM ANGELA 1995-11-05 06:00:00 TS 16.2500 111.900 60 975 tokyo main 309 272 OOOO__________ jtwc_wp WP291995 16.1000 112.000 100 3 16.2000 112.000 4 60 975 9 50 50 9 180 180 0 16.5000 111.800 3 48 985 16.2000 111.800 STS 60 975 9 302
1995293N05177 1995 83 WP MM ANGELA 1995-11-05 09:00:00 TS 16.4730 111.556 main 272 234 PPPP__________ WP291995 16.2573 111.727 95 2 16.3425 111.577 4 57 977 9 45 45 9 170 170 16.8423 111.485 3 48 985 16.4499 111.435 STS 57 977 8 306
1995293N05177 1995 83 WP MM ANGELA 1995-11-05 12:00:00 TS 16.7000 111.250 55 980 tokyo main 234 193 OOOO__________ jtwc_wp WP291995 16.4000 111.500 90 2 16.5000 111.200 4 55 980 9 40 40 9 160 160 0 17.2000 111.200 3 48 985 16.7000 111.100 STS 55 980 8 308
1995293N05177 1995 83 WP MM ANGELA 1995-11-05 15:00:00 TS 16.9537 110.919 main 183 147 PPPP__________ WP291995 16.5925 111.207 82 1 16.7349 110.877 4 52 982 9 9 150 150 17.5799 110.865 3 48 985 16.9075 110.727 STS 50 985 8 309
1995293N05177 1995 83 WP MM ANGELA 1995-11-05 18:00:00 TS 17.2000 110.600 50 985 tokyo main 147 109 OOOO__________ jtwc_wp WP291995 16.8000 110.900 75 1 17.0000 110.600 4 50 985 0 9 140 140 0 17.9000 110.500 3 48 985 17.1000 110.400 TS 45 990 7 308
1995293N05177 1995 83 WP MM ANGELA 1995-11-05 21:00:00 TS 17.4131 110.305 main 109 74 PPPP__________ WP291995 16.9999 110.615 70 1 17.2649 110.350 4 47 988 0 9 130 130 18.0876 110.070 3 38 992 17.2999 110.185 TS 42 991 7 306
1995293N05177 1995 83 WP MM ANGELA 1995-11-06 00:00:00 TS 17.6000 110.025 45 992 tokyo main 74 56 OOOO__________ jtwc_wp WP291995 17.2000 110.300 65 1 17.5000 110.100 3 45 992 0 9 120 120 0 18.2000 109.700 1 29 1000 17.5000 110.000 TS 40 992 6 303
1995293N05177 1995 83 WP MM ANGELA 1995-11-06 03:00:00 TS 17.7568 109.755 main 45 33 PPPP__________ WP291995 17.3925 109.915 60 0 17.6575 109.800 3 40 995 0 9 105 105 18.2922 109.557 1 29 1000 17.6850 109.750 TS 37 994 6 302
1995293N05177 1995 83 WP MM ANGELA 1995-11-06 06:00:00 TS 17.9267 109.473 35 998 tokyo main 33 23 OOOO__________ jtwc_wp WP291995 17.6000 109.500 55 0 17.8000 109.500 3 35 998 0 9 90 90 0 18.4000 109.400 1 29 1000 17.9000 109.500 TS 35 996 7 304
1995293N05177 1995 83 WP MM ANGELA 1995-11-06 09:00:00 TS 18.1500 109.131 main 22 11 PPPP__________ WP291995 17.8425 109.078 47 0 17.9925 109.228 3 1000 0 9 18.6000 109.010 1 29 1000 18.1800 109.288 TS 32 998 8 304
1995293N05177 1995 83 WP MM ANGELA 1995-11-06 12:00:00 TS 18.3769 108.762 1002 tokyo main 11 10 OOOO__________ jtwc_wp WP291995 18.1000 108.700 40 0 18.2000 109.000 2 1002 0 0 0 18.8000 108.500 1 29 1000 18.5000 109.100 TD 30 1000 8 299
1995293N05177 1995 83 WP MM ANGELA 1995-11-06 15:00:00 TS 18.5501 108.377 main 31 31 PPP___________ WP291995 18.3424 108.405 35 0 18.3774 108.842 2 1004 0 0 18.9304 107.883 1 29 1000 TD 7 300
1995293N05177 1995 83 WP MM ANGELA 1995-11-06 18:00:00 TS 18.7091 108.164 1006 tokyo main 52 52 OOO___________ jtwc_wp WP291995 18.6000 108.200 30 -1 18.6000 108.700 2 1006 0 0 0 19.0000 107.400 1 29 1000 5 326
1995293N05177 1995 83 WP MM ANGELA 1995-11-06 21:00:00 TS 18.9399 108.097 main 63 53 PPP___________ WP291995 18.8924 108.100 25 -1 18.9500 108.500 2 1007 0 0 19.0147 107.285 1 29 1000 5 350
1995293N05177 1995 83 WP MM ANGELA 1995-11-07 00:00:00 TS 19.2222 108.067 1008 tokyo main 53 52 OOO___________ jtwc_wp WP291995 19.2000 108.000 20 -1 19.3000 108.300 2 1008 0 0 0 19.0000 107.400 1 29 1000 6 347
1995293N05177 1995 83 WP MM ANGELA 1995-11-07 03:00:00 TS 19.5562 107.946 main 80 80 PP____________ WP291995 19.5450 107.788 17 -1 19.5675 108.105 2 1009 0 0 1 6 330
1995293N05177 1995 83 WP MM ANGELA 1995-11-07 06:00:00 TS 19.7500 107.750 1010 tokyo main 100 95 OO____________ jtwc_wp WP291995 19.8000 107.500 15 -1 19.7000 108.000 2 1010 0 0 0 4 302
1995293N05177 1995 83 WP MM ANGELA 1995-11-07 09:00:00 TS 19.7563 107.607 main 118 113 PP____________ WP291995 19.8602 107.162 15 -1 19.6525 108.053 2 1012 0 0 3 247
1995293N05177 1995 83 WP MM ANGELA 1995-11-07 12:00:00 TS 19.6500 107.500 1014 tokyo main 115 OO____________ jtwc_wp WP291995 19.8000 106.800 15 -1 19.5000 108.200 2 1014 0 0 0 3 224

Digital Typhoon Data and Search

About IBTrACS Database

This database is a web-friendly format of International Best Track Archive for Climate Stewardship (IBTrACS), a global best track data archive curated by NOAA dating back to 1842.

Updated: 2021-11-26